Flight Track Log - Related Links

Times and Time Zones

All times are in EDT time to prevent confusion due to time zone crossing. See the N529LB flight status page for this flight to view local times or setup timezone preferences in your user account.

Time Position Orientation Groundspeed Altitude Reporting Facility
EDT Latitude Longitude Course Direction KTS MPH feet Rate Location/Type
Sun 06:31:48 PM 43.1311 -77.6244 132° Southeast 112 129 1,400  Level Cleveland Center
Sun 06:33:00 PM 43.1400 -77.5700 77° East 125 144 2,500 863 Climbing Cleveland Center
Sun 06:34:07 PM 43.1139 -77.5314 133° Southeast 121 139 3,400 699 Climbing Cleveland Center
Sun 06:34:43 PM 43.0989 -77.5122 137° Southeast 122 140 3,700 689 Climbing Cleveland Center
Sun 06:35:08 PM 43.0861 -77.5017 149° Southeast 125 144 4,100 700 Climbing Cleveland Center
Sun 06:35:43 PM 43.0731 -77.4794 129° Southeast 127 146 4,400 800 Climbing Cleveland Center
Sun 06:36:08 PM 43.0603 -77.4689 149° Southeast 129 148 4,900 800 Climbing Cleveland Center
Sun 06:36:43 PM 43.0472 -77.4525 137° Southeast 127 146 5,200 787 Climbing Cleveland Center
Sun 06:37:00 PM 42.8995 -77.4075 132° Southeast  Level FlightAware Approximate
Sun 06:37:09 PM 43.0322 -77.4333 137° Southeast 132 152 5,700  Level Cleveland Center
Sun 06:37:43 PM 43.0192 -77.4139 133° Southeast 133 153 6,000 702 Climbing Cleveland Center
Sun 06:38:43 PM 42.9911 -77.3842 142° Southeast 142 163 6,800 750 Climbing Cleveland Center
Sun 06:39:43 PM 42.9631 -77.3489 137° Southeast 147 169 7,500 700 Climbing Cleveland Center
Sun 06:40:43 PM 42.9308 -77.3108 139° Southeast 147 169 8,200 700 Climbing Cleveland Center
Sun 06:41:43 PM 42.9006 -77.2725 137° Southeast 147 169 8,900 714 Climbing Cleveland Center
Sun 06:43:31 PM 42.8444 -77.2022 137° Southeast 165 190 10,200 786 Climbing New York Center
Sun 06:44:31 PM 42.8153 -77.1597 133° Southeast 159 183 11,100 864 Climbing New York Center
Sun 06:45:29 PM 42.7822 -77.1197 138° Southeast 154 177 11,900 706 Climbing New York Center
Sun 06:46:30 PM 42.7489 -77.0800 139° Southeast 159 183 12,500 541 Climbing New York Center
Sun 06:47:31 PM 42.7114 -77.0394 142° Southeast 165 190 13,000 248 Climbing New York Center
Sun 06:48:31 PM 42.6703 -76.9906 139° Southeast 177 204 13,000  Level New York Center
Sun 06:49:32 PM 42.6292 -76.9414 139° Southeast 188 216 13,000  Level New York Center
Sun 06:50:29 PM 42.5839 -76.8894 140° Southeast 207 238 13,000  Level New York Center
Sun 06:51:29 PM 42.5408 -76.8375 138° Southeast 219 252 13,000  Level New York Center
Sun 06:52:30 PM 42.4956 -76.7856 140° Southeast 219 252 13,000  Level New York Center
Sun 06:53:31 PM 42.4525 -76.7336 138° Southeast 214 246 13,000  Level New York Center
Sun 06:54:29 PM 42.4092 -76.6819 139° Southeast 214 246 13,000  Level New York Center
Sun 06:55:30 PM 42.3592 -76.6439 151° Southeast 214 246 13,000  Level New York Center
Sun 06:56:32 PM 42.3111 -76.6031 148° Southeast 204 235 13,000  Level New York Center
Sun 06:57:29 PM 42.2647 -76.5708 153° Southeast 198 228 13,000  Level New York Center
Sun 06:58:30 PM 42.2167 -76.5331 150° Southeast 198 228 13,000  Level New York Center
Sun 06:59:30 PM 42.1686 -76.4925 148° Southeast 198 228 13,000  Level New York Center
Sun 07:01:29 PM 42.0722 -76.4172 150° Southeast 198 228 13,000  Level New York Center
Sun 07:02:29 PM 42.0200 -76.3764 150° Southeast 198 228 13,000 -50 Level New York Center
Sun 07:03:30 PM 41.9719 -76.3361 148° Southeast 198 228 12,900 -298 Descending New York Center
Sun 07:04:30 PM 41.9281 -76.2989 148° Southeast 198 228 12,400 -496 Descending New York Center
Sun 07:05:31 PM 41.8756 -76.2583 150° Southeast 203 234 11,900 -492 Descending New York Center
Sun 07:06:32 PM 41.8175 -76.2117 149° Southeast 216 249 11,400 -454 Descending New York Center
Sun 07:07:30 PM 41.7653 -76.1714 150° Southeast 216 249 11,000 -202 Descending New York Center
Sun 07:08:31 PM 41.7211 -76.1317 146° Southeast 211 243 11,000  Level New York Center
Sun 07:09:29 PM 41.6767 -76.1003 152° Southeast 204 235 11,000  Level New York Center
Sun 07:10:29 PM 41.6306 -76.0606 147° Southeast 199 229 11,000 -298 Level New York Center
Sun 07:11:30 PM 41.5783 -76.0203 150° Southeast 199 229 10,400 -496 Descending New York Center
Sun 07:12:30 PM 41.5281 -75.9778 148° Southeast 199 229 10,000 -446 Descending New York Center
Sun 07:13:31 PM 41.4839 -75.9411 148° Southeast 204 235 9,500 -496 Descending New York Center
Sun 07:14:31 PM 41.4336 -75.9011 149° Southeast 204 235 9,000 -508 Descending New York Center
Sun 07:15:29 PM 41.3808 -75.8667 154° Southeast 204 235 8,500 -508 Descending New York Center
Sun 07:16:29 PM 41.3300 -75.8381 157° South 204 235 8,000 -496 Descending New York Center
Sun 07:17:30 PM 41.2753 -75.8008 153° Southeast 204 235 7,500 -530 Descending New York Center
Sun 07:19:30 PM 41.2031 -75.6878 130° Southeast 199 229 6,400 -536 Descending New York Center
Sun 07:20:29 PM 41.1697 -75.6358 130° Southeast 186 214 5,900 -508 Descending New York Center
Sun 07:22:00 PM 40.9984 -75.6079 173° South  Level FlightAware Approximate
Sun 07:29:00 PM 40.7054 -75.3855 103° East  Level FlightAware Approximate
Sun 07:30:00 PM 40.6942 -75.3222 103° East  Level FlightAware Approximate
Sun 07:31:00 PM 40.6830 -75.2588 103° East  Level FlightAware Approximate
Sun 07:32:00 PM 40.6718 -75.1955 103° East  Level FlightAware Approximate

Login

Don't have an account? Register now (free) for customized features, flight alerts, and more!